Time;durP1;ratioP1;P1;durP2;ratioP2;P2;SDS_P1;SDS_P2;PMS_P1;PMS_P2;Temp;Humidity;BMP_temperature;BMP_pressure;BME280_temperature;BME280_humidity;BME280_pressure;Samples;Min_cycle;Max_cycle;Signal;HPM_P1;HPM_P2
2023/05/02 00:01:58;;;;;;;;;15.75;13.00;;;;;7.77;83.49;98407.34;4963413;28;101655;-76
2023/05/02 00:04:34;;;;;;;;;17.25;17.00;;;;;7.56;86.05;98401.91;4960317;27;103498;-76
2023/05/02 00:07:25;;;;;;;;;17.50;15.50;;;;;7.51;83.61;98398.94;4954996;28;101486;-76
2023/05/02 00:10:09;;;;;;;;;14.00;13.75;;;;;7.36;83.50;98387.31;4964700;28;102024;-76
2023/05/02 00:13:03;;;;;;;;;21.75;16.00;;;;;7.27;83.97;98383.91;4953199;28;101881;-74
2023/05/02 00:15:53;;;;;;;;;15.25;14.00;;;;;7.20;87.05;98395.59;4957769;28;107547;-75
2023/05/02 00:18:28;;;;;;;;;17.00;14.50;;;;;7.13;88.44;98390.94;4957305;28;101623;-74
2023/05/02 00:20:55;;;;;;;;;23.00;21.00;;;;;7.16;88.24;98398.63;4966337;28;101812;-76
2023/05/02 00:23:23;;;;;;;;;24.00;22.25;;;;;7.24;87.78;98400.41;4968073;28;101666;-75
2023/05/02 00:25:50;;;;;;;;;24.00;22.00;;;;;7.30;87.14;98396.97;4958972;28;103350;-75
2023/05/02 00:28:17;;;;;;;;;17.25;14.50;;;;;7.35;86.38;98394.56;4962716;28;101904;-76
2023/05/02 00:30:45;;;;;;;;;15.00;14.00;;;;;7.41;85.86;98393.00;4978700;28;106130;-76
2023/05/02 00:33:13;;;;;;;;;12.75;11.00;;;;;7.41;86.16;98398.38;4959702;28;101750;-75
2023/05/02 00:35:41;;;;;;;;;14.00;10.50;;;;;7.40;85.16;98394.84;4962378;27;103510;-72
2023/05/02 00:38:08;;;;;;;;;13.50;11.00;;;;;7.34;84.68;98389.38;4965413;28;101591;-75
2023/05/02 00:40:46;;;;;;;;;8.00;7.75;;;;;7.28;84.67;98392.81;4955415;28;103710;-76
2023/05/02 00:43:14;;;;;;;;;9.75;9.00;;;;;7.18;85.51;98388.53;4962539;27;101701;-75
2023/05/02 00:45:43;;;;;;;;;17.50;16.00;;;;;7.15;85.74;98386.22;4953578;28;103428;-75
2023/05/02 00:48:10;;;;;;;;;14.50;11.50;;;;;7.15;85.94;98391.59;4951876;28;101841;-72
2023/05/02 00:50:40;;;;;;;;;10.25;10.00;;;;;7.08;86.42;98377.22;4963716;28;101562;-75
2023/05/02 00:53:10;;;;;;;;;9.25;7.75;;;;;7.17;88.62;98386.84;4960650;28;101739;-75
2023/05/02 00:55:37;;;;;;;;;9.75;8.75;;;;;7.08;90.43;98371.84;4959256;28;107757;-75
2023/05/02 00:58:09;;;;;;;;;10.00;10.00;;;;;7.18;91.44;98376.94;4954223;28;101569;-75
2023/05/02 01:00:58;;;;;;;;;15.25;13.75;;;;;7.17;92.95;98386.84;4952504;28;101526;-76
2023/05/02 01:03:39;;;;;;;;;10.75;9.50;;;;;7.20;92.95;98379.47;4963416;28;101659;-74
2023/05/02 01:06:15;;;;;;;;;20.00;19.00;;;;;7.18;91.55;98383.16;4965701;28;106976;-75
2023/05/02 01:09:09;;;;;;;;;20.50;19.25;;;;;7.23;90.99;98389.84;4964847;28;101623;-75
2023/05/02 01:12:30;;;;;;;;;23.00;22.00;;;;;7.21;90.47;98389.16;4966233;27;101275;-76
2023/05/02 01:15:25;;;;;;;;;35.75;26.50;;;;;7.08;89.60;98377.22;4959648;28;103107;-75
2023/05/02 01:18:03;;;;;;;;;25.75;24.00;;;;;7.18;89.04;98388.53;4963249;27;102864;-75
2023/05/02 01:20:35;;;;;;;;;20.00;20.00;;;;;7.22;87.68;98389.00;4970839;27;101634;-76
2023/05/02 01:23:10;;;;;;;;;16.50;11.75;;;;;7.23;87.26;98384.47;4958846;27;101422;-75
2023/05/02 01:26:01;;;;;;;;;18.25;15.25;;;;;7.22;87.46;98385.47;4961266;28;101543;-75
2023/05/02 01:28:35;;;;;;;;;40.00;31.50;;;;;6.88;90.45;98381.47;4998855;27;107860;-75
2023/05/02 01:31:05;;;;;;;;;36.25;32.25;;;;;6.67;92.37;98374.09;4967721;28;101945;-76
2023/05/02 01:33:34;;;;;;;;;29.00;23.50;;;;;6.78;93.17;98370.13;4959863;27;101785;-76
2023/05/02 01:36:02;;;;;;;;;29.50;26.00;;;;;6.68;94.45;98374.94;4964116;28;106568;-76
2023/05/02 01:38:31;;;;;;;;;29.00;22.50;;;;;6.72;93.43;98363.63;4958846;28;103217;-75
2023/05/02 01:41:04;;;;;;;;;17.25;16.00;;;;;6.87;92.15;98374.41;4960675;27;101451;-76
2023/05/02 01:43:34;;;;;;;;;15.00;14.00;;;;;6.93;91.79;98383.59;4963453;28;101753;-76
2023/05/02 01:46:03;;;;;;;;;15.50;13.00;;;;;6.95;93.13;98378.88;4968982;27;101774;-76
2023/05/02 01:48:31;;;;;;;;;9.00;7.00;;;;;7.00;92.44;98380.00;4958647;28;103347;-74
2023/05/02 01:50:59;;;;;;;;;14.00;9.75;;;;;7.04;91.72;98380.44;4960680;28;101428;-76
2023/05/02 01:53:29;;;;;;;;;7.00;6.75;;;;;7.06;91.20;98368.50;4963799;28;101386;-74
2023/05/02 01:55:59;;;;;;;;;7.75;7.50;;;;;7.03;90.60;98365.34;4969843;28;101868;-75
2023/05/02 01:58:29;;;;;;;;;8.25;8.00;;;;;7.10;92.25;98368.97;4966509;27;103454;-75
2023/05/02 02:01:00;;;;;;;;;9.50;8.25;;;;;7.16;92.06;98374.44;4970895;28;102465;-76
2023/05/02 02:03:30;;;;;;;;;14.50;13.00;;;;;7.21;92.87;98381.09;4966364;28;101497;-75
2023/05/02 02:06:00;;;;;;;;;22.00;20.75;;;;;7.22;93.02;98380.94;4968864;28;101787;-76
2023/05/02 02:08:27;;;;;;;;;16.00;14.00;;;;;7.26;92.57;98379.53;4968230;28;103605;-76
2023/05/02 02:10:59;;;;;;;;;16.00;14.75;;;;;7.33;90.97;98372.41;4967469;27;102142;-76
2023/05/02 02:13:46;;;;;;;;;13.50;13.00;;;;;7.42;91.68;98378.53;4967230;28;101494;-75
2023/05/02 02:16:23;;;;;;;;;18.50;18.25;;;;;7.30;92.35;98369.22;4966369;28;101679;-75
2023/05/02 02:18:53;;;;;;;;;22.00;20.75;;;;;7.27;92.77;98375.00;4968053;28;103508;-76
2023/05/02 02:21:24;;;;;;;;;18.25;16.25;;;;;7.26;92.63;98371.47;4961745;28;101706;-76
2023/05/02 02:23:55;;;;;;;;;21.75;20.25;;;;;7.17;94.32;98370.72;4962358;28;101716;-75
2023/05/02 02:26:22;;;;;;;;;21.75;18.00;;;;;7.28;92.58;98382.06;4971586;28;101788;-75
2023/05/02 02:28:49;;;;;;;;;15.50;14.25;;;;;7.27;91.48;98375.00;4963461;28;103787;-75
2023/05/02 02:31:16;;;;;;;;;11.25;11.25;;;;;7.40;92.82;98376.00;4959466;27;101542;-75
2023/05/02 02:33:43;;;;;;;;;9.00;9.00;;;;;7.46;93.26;98369.91;4960646;28;101589;-72
2023/05/02 02:36:27;;;;;;;;;8.50;8.00;;;;;7.52;92.37;98379.09;4963280;28;101818;-77
2023/05/02 02:39:11;;;;;;;;;8.00;8.00;;;;;7.55;92.21;98376.00;4961506;28;108011;-76
2023/05/02 02:42:07;;;;;;;;;5.50;5.50;;;;;7.68;90.09;98378.88;4972230;28;101633;-76
2023/05/02 02:45:09;;;;;;;;;6.50;5.00;;;;;7.63;89.70;98359.75;4966742;28;101562;-76
2023/05/02 02:47:43;;;;;;;;;4.00;4.00;;;;;7.89;87.80;98384.28;4961413;28;101492;-76
2023/05/02 02:50:21;;;;;;;;;4.50;4.50;;;;;8.09;85.09;98376.44;4960462;28;107973;-76
2023/05/02 02:53:01;;;;;;;;;4.25;4.00;;;;;8.25;84.90;98375.34;4954016;28;101626;-77
2023/05/02 02:55:52;;;;;;;;;3.00;2.00;;;;;8.38;83.85;98375.50;4968933;28;101932;-76
2023/05/02 02:58:57;;;;;;;;;1.00;1.00;;;;;8.51;82.77;98386.41;4977881;28;101623;-76
2023/05/02 03:01:27;;;;;;;;;4.00;3.75;;;;;8.65;81.88;98360.41;4919410;28;107935;-76
2023/05/02 03:03:56;;;;;;;;;4.00;3.00;;;;;8.85;80.90;98382.97;4966872;28;101976;-76
2023/05/02 03:06:24;;;;;;;;;5.25;4.25;;;;;9.01;80.34;98385.38;4964379;27;102813;-76
2023/05/02 03:08:51;;;;;;;;;3.25;2.75;;;;;9.15;78.92;98383.59;4960901;28;102976;-76
2023/05/02 03:11:18;;;;;;;;;5.00;5.00;;;;;9.30;78.10;98378.94;4962982;28;103366;-72
2023/05/02 03:13:45;;;;;;;;;7.75;5.75;;;;;9.44;76.19;98382.56;4962719;28;101733;-78
2023/05/02 03:16:32;;;;;;;;;6.25;5.00;;;;;9.56;76.40;98389.88;4960055;28;101437;-77
2023/05/02 03:19:00;;;;;;;;;7.25;6.75;;;;;9.55;75.61;98369.31;4967184;28;101567;-76
2023/05/02 03:21:27;;;;;;;;;9.00;4.50;;;;;9.67;74.26;98385.78;4951340;28;103362;-76
2023/05/02 03:23:53;;;;;;;;;4.75;4.50;;;;;9.64;74.62;98370.81;4960136;28;101537;-76
2023/05/02 03:26:20;;;;;;;;;7.75;6.00;;;;;9.81;72.43;98380.25;4964688;28;101565;-76
2023/05/02 03:28:49;;;;;;;;;2.75;1.25;;;;;9.88;72.53;98382.13;4961201;28;105727;-76
2023/05/02 03:31:16;;;;;;;;;3.75;3.50;;;;;9.93;71.89;98379.66;4959690;28;109180;-77
2023/05/02 03:33:43;;;;;;;;;7.75;6.25;;;;;9.91;71.22;98379.03;4957016;28;101603;-77
2023/05/02 03:36:10;;;;;;;;;5.75;5.00;;;;;10.05;70.16;98380.72;4954803;28;101698;-76
2023/05/02 03:38:37;;;;;;;;;9.75;5.25;;;;;10.10;70.31;98380.97;4970867;28;101624;-76
2023/05/02 03:41:04;;;;;;;;;4.00;4.00;;;;;10.16;69.45;98380.19;4963357;28;103363;-76
2023/05/02 03:43:31;;;;;;;;;5.50;4.00;;;;;10.21;69.37;98380.41;4958734;28;101903;-76
2023/05/02 03:46:08;;;;;;;;;6.00;5.25;;;;;10.25;69.13;98381.66;4963358;28;101608;-76
2023/05/02 03:48:35;;;;;;;;;5.50;5.00;;;;;10.27;68.80;98375.00;4962793;28;101677;-78
2023/05/02 03:51:04;;;;;;;;;7.00;5.75;;;;;10.30;67.59;98376.50;4959929;28;103314;-78
2023/05/02 03:53:31;;;;;;;;;6.75;5.50;;;;;10.27;68.35;98366.06;4958820;28;102169;-76
2023/05/02 03:55:58;;;;;;;;;4.00;4.00;;;;;10.13;68.55;98340.06;4958991;28;101894;-76
2023/05/02 03:58:26;;;;;;;;;4.00;4.00;;;;;10.44;68.27;98380.06;4963498;28;101752;-75
2023/05/02 04:00:53;;;;;;;;;2.75;2.50;;;;;10.49;67.82;98382.97;4964736;28;106110;-76
2023/05/02 04:03:21;;;;;;;;;2.00;2.00;;;;;10.54;67.42;98380.47;4962189;28;101568;-75
2023/05/02 04:05:50;;;;;;;;;3.00;3.00;;;;;10.56;66.11;98384.63;4960769;28;101686;-75
2023/05/02 04:08:17;;;;;;;;;2.25;2.25;;;;;10.51;67.26;98362.78;4956754;28;101921;-76
2023/05/02 04:10:45;;;;;;;;;3.00;3.00;;;;;10.67;66.02;98380.50;4956575;28;107925;-76
2023/05/02 04:13:12;;;;;;;;;3.25;2.50;;;;;10.76;66.11;98384.66;4962466;28;102048;-76
2023/05/02 04:15:39;;;;;;;;;5.00;5.00;;;;;10.83;66.26;98379.25;4962675;28;101707;-77
2023/05/02 04:18:06;;;;;;;;;3.75;3.00;;;;;10.88;66.48;98387.56;4970910;28;101345;-75
2023/05/02 04:20:33;;;;;;;;;4.25;3.75;;;;;10.92;65.29;98386.94;4960576;28;103568;-77
2023/05/02 04:23:00;;;;;;;;;3.00;3.00;;;;;11.00;64.54;98385.88;4973087;28;101619;-76
2023/05/02 04:25:27;;;;;;;;;2.75;2.75;;;;;11.06;64.27;98383.19;4961566;28;101623;-75
2023/05/02 04:27:55;;;;;;;;;2.25;2.25;;;;;11.11;64.07;98390.69;4967817;28;101526;-76
2023/05/02 04:30:22;;;;;;;;;4.75;4.50;;;;;11.15;64.06;98392.75;4970342;27;103348;-76
2023/05/02 04:32:49;;;;;;;;;2.50;2.50;;;;;11.26;63.93;98383.16;4983459;28;101564;-75
2023/05/02 04:35:17;;;;;;;;;2.50;2.50;;;;;11.30;63.13;98389.81;4978921;28;101665;-77
2023/05/02 04:37:46;;;;;;;;;5.25;4.00;;;;;11.34;62.80;98391.06;4966480;28;101861;-77
2023/05/02 04:40:13;;;;;;;;;4.75;4.25;;;;;11.39;64.05;98393.16;4969522;28;108064;-76
2023/05/02 04:42:40;;;;;;;;;6.00;3.00;;;;;11.49;62.74;98402.47;4962581;28;101539;-76
2023/05/02 04:45:08;;;;;;;;;4.00;4.00;;;;;11.63;61.60;98396.00;4963884;28;101984;-76
2023/05/02 04:47:35;;;;;;;;;5.00;4.00;;;;;11.81;61.52;98397.22;4969292;28;101748;-76
2023/05/02 04:50:02;;;;;;;;;4.75;3.75;;;;;12.15;60.31;98402.31;4969133;27;103335;-76
2023/05/02 04:52:29;;;;;;;;;3.00;3.00;;;;;12.47;57.64;98395.03;4957254;28;101755;-76
2023/05/02 04:54:56;;;;;;;;;4.00;4.00;;;;;12.75;57.89;98400.03;4963626;28;101711;-76
2023/05/02 04:57:23;;;;;;;;;3.75;3.00;;;;;13.05;57.11;98402.97;4963798;28;101868;-75
2023/05/02 04:59:50;;;;;;;;;4.75;3.00;;;;;13.32;54.14;98407.97;4965348;28;103488;-77
2023/05/02 05:02:17;;;;;;;;;3.00;3.00;;;;;13.69;54.08;98413.41;4976237;28;101670;-76
2023/05/02 05:04:44;;;;;;;;;3.25;3.00;;;;;14.09;54.00;98401.06;4968791;28;103096;-77
2023/05/02 05:07:11;;;;;;;;;4.00;3.25;;;;;14.25;51.12;98408.56;4971990;28;101654;-77
2023/05/02 05:09:38;;;;;;;;;3.00;2.75;;;;;14.73;50.13;98402.28;4969258;28;103049;-78
2023/05/02 05:12:06;;;;;;;;;3.00;3.00;;;;;15.11;50.54;98405.44;4958894;28;101567;-76
2023/05/02 05:14:33;;;;;;;;;6.00;4.25;;;;;15.40;50.22;98411.06;4969730;28;103367;-77
2023/05/02 05:17:00;;;;;;;;;4.25;4.25;;;;;15.71;50.87;98410.72;4958707;28;101816;-77
2023/05/02 05:19:27;;;;;;;;;3.00;3.00;;;;;15.83;48.29;98413.41;4963047;28;103278;-77
2023/05/02 05:21:54;;;;;;;;;5.75;4.00;;;;;16.12;48.09;98403.41;4956400;28;101587;-77
2023/05/02 05:24:21;;;;;;;;;3.67;2.67;;;;;16.12;46.78;98414.31;4965396;28;101377;-76
2023/05/02 05:26:48;;;;;;;;;3.67;3.00;;;;;16.07;46.01;98380.38;4960082;28;101648;-72
2023/05/02 05:29:17;;;;;;;;;3.00;3.00;;;;;16.33;47.20;98408.19;4957927;28;107934;-77
2023/05/02 05:31:44;;;;;;;;;2.00;2.00;;;;;16.57;49.14;98411.69;4961435;28;101579;-76
2023/05/02 05:34:11;;;;;;;;;3.00;3.00;;;;;16.70;46.20;98417.69;4970946;28;101526;-77
2023/05/02 05:36:41;;;;;;;;;2.33;2.00;;;;;16.75;47.55;98416.97;4970052;28;103133;-76
2023/05/02 05:39:09;;;;;;;;;4.33;4.00;;;;;16.85;47.70;98412.50;4971698;28;103340;-76
2023/05/02 05:41:37;;;;;;;;;2.33;2.00;;;;;16.90;45.65;98417.22;4963851;28;101271;-75
2023/05/02 05:44:04;;;;;;;;;2.00;2.00;;;;;17.06;47.35;98415.59;4960354;28;101942;-76
2023/05/02 05:46:31;;;;;;;;;5.00;3.33;;;;;17.17;47.60;98411.94;4963655;28;101627;-76
2023/05/02 05:48:58;;;;;;;;;2.00;1.67;;;;;17.30;46.52;98425.28;4959378;28;103411;-77
2023/05/02 05:51:26;;;;;;;;;5.00;5.00;;;;;17.57;48.02;98412.59;4960948;28;102189;-75
2023/05/02 05:53:53;;;;;;;;;5.00;4.67;;;;;17.96;46.67;98421.69;4969503;28;104649;-76
2023/05/02 05:56:21;;;;;;;;;6.00;4.67;;;;;18.16;43.72;98419.19;4961837;28;101952;-77
2023/05/02 05:58:48;;;;;;;;;4.00;3.00;;;;;18.46;41.19;98431.63;4966221;28;103362;-70
2023/05/02 06:01:15;;;;;;;;;6.00;4.00;;;;;18.85;41.02;98426.88;4962772;28;101606;-77
2023/05/02 06:03:42;;;;;;;;;4.00;4.00;;;;;19.07;41.65;98417.50;4962198;28;101606;-78
2023/05/02 06:06:09;;;;;;;;;4.00;3.00;;;;;19.14;40.30;98423.59;4969348;28;102017;-77
2023/05/02 06:08:36;;;;;;;;;2.67;2.67;;;;;19.21;41.38;98434.34;4967958;28;103382;-77
2023/05/02 06:11:08;;;;;;;;;4.00;3.00;;;;;19.32;41.89;98422.38;4963790;28;101790;-77
2023/05/02 06:13:35;;;;;;;;;2.67;2.67;;;;;19.45;40.00;98426.63;4959848;27;103090;-76
2023/05/02 06:16:02;;;;;;;;;5.00;4.67;;;;;19.70;41.32;98428.72;4968816;28;101572;-76
2023/05/02 06:18:29;;;;;;;;;3.67;3.00;;;;;19.93;40.73;98433.81;4963532;28;103561;-75
2023/05/02 06:20:56;;;;;;;;;3.67;3.67;;;;;20.12;39.28;98425.97;4967668;28;101585;-78
2023/05/02 06:23:23;;;;;;;;;4.33;4.33;;;;;20.15;40.59;98434.50;4963297;27;101740;-75
2023/05/02 06:25:50;;;;;;;;;4.33;4.00;;;;;20.43;39.52;98436.88;4965911;27;101588;-75
2023/05/02 06:28:17;;;;;;;;;3.67;3.67;;;;;20.58;39.33;98438.03;4969568;28;103371;-79
2023/05/02 06:30:44;;;;;;;;;6.33;3.33;;;;;20.54;40.48;98437.72;4964372;28;101441;-77
2023/05/02 06:33:11;;;;;;;;;3.67;3.67;;;;;20.72;40.42;98436.38;4960895;28;101677;-74
2023/05/02 06:35:38;;;;;;;;;2.00;2.00;;;;;20.86;39.12;98441.09;4958676;28;108542;-77
2023/05/02 06:38:05;;;;;;;;;5.00;4.00;;;;;20.76;40.02;98434.75;4962600;28;103311;-76
2023/05/02 06:40:35;;;;;;;;;2.33;2.00;;;;;20.74;39.21;98451.53;4967976;28;101916;-76
2023/05/02 06:43:02;;;;;;;;;3.00;3.00;;;;;20.72;41.01;98455.63;4963424;28;101253;-76
2023/05/02 06:45:29;;;;;;;;;2.00;2.00;;;;;20.56;39.39;98449.25;4964657;28;101571;-76
2023/05/02 06:47:56;;;;;;;;;3.33;3.00;;;;;20.42;41.13;98459.91;4961669;28;103335;-76
2023/05/02 06:50:23;;;;;;;;;3.33;2.00;;;;;20.46;40.92;98460.22;4958983;28;101631;-76
2023/05/02 06:52:49;;;;;;;;;3.67;3.33;;;;;20.58;42.47;98447.06;4959316;27;101644;-71
2023/05/02 06:55:16;;;;;;;;;4.00;3.00;;;;;20.47;41.33;98454.44;4959431;28;101596;-76
2023/05/02 06:57:43;;;;;;;;;3.00;3.00;;;;;20.65;42.23;98464.13;4959503;28;107834;-76
2023/05/02 07:00:11;;;;;;;;;1.67;1.67;;;;;20.53;40.68;98465.47;4967113;27;101564;-75
2023/05/02 07:02:38;;;;;;;;;3.00;3.00;;;;;20.41;41.28;98460.19;4965109;28;101894;-76
2023/05/02 07:05:05;;;;;;;;;3.00;3.00;;;;;20.64;40.70;98456.97;4962905;28;101455;-76
2023/05/02 07:07:32;;;;;;;;;2.67;2.00;;;;;20.95;40.41;98471.63;4961899;28;103511;-76
2023/05/02 07:09:59;;;;;;;;;3.00;2.00;;;;;21.22;41.64;98464.03;4963666;28;101611;-77
2023/05/02 07:12:27;;;;;;;;;2.00;2.00;;;;;21.20;39.21;98466.25;4965578;27;102062;-77
2023/05/02 07:14:54;;;;;;;;;2.00;2.00;;;;;21.02;40.66;98466.72;4967804;28;102035;-75
2023/05/02 07:17:22;;;;;;;;;4.67;4.00;;;;;20.92;40.60;98475.78;4955338;28;103293;-75
2023/05/02 07:19:49;;;;;;;;;2.00;2.00;;;;;20.98;40.18;98473.88;4966868;28;101934;-73
2023/05/02 07:22:17;;;;;;;;;3.33;3.33;;;;;21.09;41.16;98478.28;4963113;28;101600;-75
2023/05/02 07:24:44;;;;;;;;;2.00;2.00;;;;;21.01;40.52;98473.31;4968495;28;101847;-75
2023/05/02 07:27:12;;;;;;;;;2.33;2.00;;;;;21.12;40.03;98472.22;4962366;28;103312;-76
2023/05/02 07:29:41;;;;;;;;;8.67;7.33;;;;;20.21;40.76;98488.34;4964787;28;103172;-76
2023/05/02 07:32:08;;;;;;;;;6.00;6.00;;;;;20.15;42.03;98486.66;4965954;28;101624;-76
2023/05/02 07:34:35;;;;;;;;;6.00;6.00;;;;;20.34;42.88;98495.31;4964469;27;101643;-76
2023/05/02 07:37:02;;;;;;;;;7.00;6.33;;;;;20.19;40.77;98498.75;4960695;28;103493;-76
2023/05/02 07:39:31;;;;;;;;;12.00;11.00;;;;;19.04;43.44;98502.16;4958775;28;101589;-76
2023/05/02 07:41:58;;;;;;;;;9.67;8.67;;;;;19.13;44.97;98504.19;4962613;28;101593;-78
2023/05/02 07:44:25;;;;;;;;;7.00;6.00;;;;;19.46;44.42;98492.19;4956817;28;101786;-76
2023/05/02 07:46:52;;;;;;;;;6.33;5.67;;;;;19.77;42.58;98506.16;4964987;28;102191;-76
2023/05/02 07:49:19;;;;;;;;;4.00;3.67;;;;;19.90;42.12;98500.22;4959186;28;101732;-75
2023/05/02 07:51:46;;;;;;;;;5.00;3.33;;;;;19.79;42.22;98474.63;4974512;28;101635;-77
2023/05/02 07:54:18;;;;;;;;;3.00;3.00;;;;;20.22;41.83;98506.44;4968214;27;101573;-77
2023/05/02 07:56:46;;;;;;;;;4.00;2.33;;;;;20.42;41.80;98503.88;4973559;28;109120;-76
2023/05/02 07:59:13;;;;;;;;;2.00;2.00;;;;;20.60;40.36;98508.06;4970232;28;101553;-77
2023/05/02 08:01:40;;;;;;;;;3.00;2.33;;;;;20.42;41.42;98509.34;4968508;28;101671;-76
2023/05/02 08:04:11;;;;;;;;;9.33;7.00;;;;;19.03;45.79;98465.72;4967842;28;101473;-76
2023/05/02 08:06:39;;;;;;;;;8.33;7.00;;;;;19.58;42.94;98498.34;4961582;28;103429;-76
2023/05/02 08:09:06;;;;;;;;;7.00;5.00;;;;;19.85;43.20;98502.94;4969535;28;101585;-76
2023/05/02 08:11:33;;;;;;;;;3.00;3.00;;;;;20.05;42.93;98503.88;4971811;28;101651;-75
2023/05/02 08:14:00;;;;;;;;;3.00;3.00;;;;;20.15;42.27;98508.63;4958501;28;101543;-77
2023/05/02 08:16:27;;;;;;;;;3.00;2.00;;;;;20.11;42.19;98507.50;4958207;28;103511;-74
2023/05/02 08:18:54;;;;;;;;;1.67;1.67;;;;;20.07;42.61;98491.81;4960313;28;101890;-76
2023/05/02 08:21:21;;;;;;;;;0.67;0.67;;;;;20.02;41.35;98507.16;4969951;28;101608;-77
2023/05/02 08:23:48;;;;;;;;;2.67;1.67;;;;;20.01;41.67;98513.75;4971607;27;101666;-76
2023/05/02 08:26:17;;;;;;;;;2.67;2.67;;;;;19.67;42.69;98506.06;4971673;28;107771;-77
2023/05/02 08:28:44;;;;;;;;;5.00;4.00;;;;;19.19;43.50;98510.53;4968529;28;101749;-75
2023/05/02 08:31:11;;;;;;;;;1.67;1.67;;;;;19.44;43.38;98507.25;4970065;28;101733;-75
2023/05/02 08:33:38;;;;;;;;;4.67;4.67;;;;;18.60;43.59;98488.50;4963979;27;101664;-76
2023/05/02 08:36:16;;;;;;;;;5.00;5.00;;;;;18.59;44.35;98518.91;4970167;28;103797;-76
2023/05/02 08:38:45;;;;;;;;;4.00;4.00;;;;;18.45;44.98;98520.31;4972708;28;101583;-75
2023/05/02 08:41:18;;;;;;;;;6.00;6.00;;;;;18.51;46.38;98511.91;4970746;28;101502;-75
2023/05/02 08:43:46;;;;;;;;;4.00;4.00;;;;;19.14;44.94;98521.44;4963496;28;101951;-76
2023/05/02 08:46:15;;;;;;;;;3.00;2.00;;;;;19.58;44.24;98517.53;4969586;28;103236;-77
2023/05/02 08:48:48;;;;;;;;;1.00;1.00;;;;;19.86;42.58;98524.59;4966929;28;101631;-75
2023/05/02 08:51:16;;;;;;;;;1.67;1.67;;;;;19.54;43.83;98530.09;4967347;28;101609;-77
2023/05/02 08:53:51;;;;;;;;;4.67;3.00;;;;;19.66;42.86;98524.44;4961841;28;101503;-77
2023/05/02 08:56:18;;;;;;;;;3.00;3.00;;;;;20.03;42.10;98527.22;4965933;28;108112;-76
2023/05/02 08:58:45;;;;;;;;;1.67;0.67;;;;;20.35;42.23;98529.94;4962812;27;101625;-76
2023/05/02 09:01:15;;;;;;;;;2.00;1.00;;;;;20.57;41.21;98532.50;4965044;28;101657;-74
2023/05/02 09:03:44;;;;;;;;;2.67;2.67;;;;;20.38;40.54;98524.72;4968765;28;101951;-77
2023/05/02 09:06:21;;;;;;;;;2.00;1.67;;;;;20.41;41.64;98518.69;4971809;28;103309;-76
2023/05/02 09:08:53;;;;;;;;;2.00;2.00;;;;;20.44;41.82;98526.38;4951197;28;101601;-77
2023/05/02 09:11:21;;;;;;;;;1.33;1.33;;;;;20.51;42.74;98523.41;4959595;28;101497;-73
2023/05/02 09:13:50;;;;;;;;;2.00;2.00;;;;;20.58;41.98;98525.94;4970916;28;101458;-76
2023/05/02 09:16:25;;;;;;;;;1.00;1.00;;;;;20.58;41.00;98523.19;4969580;28;108032;-76
2023/05/02 09:18:56;;;;;;;;;2.67;2.00;;;;;20.53;41.32;98525.91;4961013;28;101615;-77
2023/05/02 09:21:42;;;;;;;;;2.00;2.00;;;;;20.52;41.44;98530.56;4972216;28;101628;-77
2023/05/02 09:24:20;;;;;;;;;2.00;2.00;;;;;20.46;41.49;98537.13;4961424;28;101403;-77
2023/05/02 09:27:02;;;;;;;;;3.00;2.33;;;;;20.13;43.64;98529.22;4969877;28;107969;-75
2023/05/02 09:29:34;;;;;;;;;4.67;4.67;;;;;19.74;43.99;98532.19;4960304;28;101602;-76
2023/05/02 09:32:03;;;;;;;;;4.67;4.00;;;;;20.34;42.52;98540.09;4961638;28;101382;-75
2023/05/02 09:34:30;;;;;;;;;6.33;6.33;;;;;20.33;43.50;98532.09;4966968;28;103371;-75
2023/05/02 09:36:57;;;;;;;;;4.00;4.00;;;;;20.80;42.95;98532.06;4958867;28;103380;-76
2023/05/02 09:39:28;;;;;;;;;4.33;4.33;;;;;20.70;41.13;98545.75;4970255;28;101771;-77
2023/05/02 09:41:56;;;;;;;;;7.00;6.00;;;;;20.46;41.86;98537.94;4963325;28;101886;-75
2023/05/02 09:44:25;;;;;;;;;3.00;3.00;;;;;20.84;42.26;98534.00;4969711;28;101603;-77
2023/05/02 09:47:01;;;;;;;;;3.00;2.00;;;;;21.06;39.98;98525.56;4953911;28;103391;-75
2023/05/02 09:49:40;;;;;;;;;3.00;3.00;;;;;21.22;41.24;98530.03;4957823;27;101694;-75
2023/05/02 09:52:17;;;;;;;;;4.00;4.00;;;;;20.65;39.81;98532.00;4965132;28;101609;-76
2023/05/02 09:54:49;;;;;;;;;5.00;5.00;;;;;20.95;40.98;98534.88;4963041;28;102406;-75
2023/05/02 09:57:16;;;;;;;;;4.00;4.00;;;;;20.36;40.97;98539.78;4969214;28;106437;-76
2023/05/02 09:59:57;;;;;;;;;3.67;3.33;;;;;20.45;41.84;98543.69;4960740;28;101889;-76
2023/05/02 10:02:24;;;;;;;;;5.67;4.00;;;;;20.59;41.08;98542.13;4962189;28;101572;-75
2023/05/02 10:04:55;;;;;;;;;5.00;5.00;;;;;20.31;41.85;98532.34;4960586;28;101689;-77
2023/05/02 10:07:24;;;;;;;;;8.00;4.00;;;;;20.79;42.54;98541.41;4961220;28;103335;-75
2023/05/02 10:09:53;;;;;;;;;3.33;3.33;;;;;20.98;41.87;98541.75;4964725;27;101942;-76
2023/05/02 10:12:24;;;;;;;;;5.00;4.67;;;;;20.70;41.92;98545.75;4963067;28;101527;-75
2023/05/02 10:14:59;;;;;;;;;4.00;3.67;;;;;20.89;40.51;98539.50;4963316;28;101958;-73
2023/05/02 10:17:31;;;;;;;;;4.00;4.00;;;;;20.94;40.28;98531.28;4959205;28;103326;-76
2023/05/02 10:20:06;;;;;;;;;6.00;5.00;;;;;21.33;40.08;98539.97;4963311;28;101359;-75
2023/05/02 10:22:35;;;;;;;;;6.00;6.00;;;;;20.68;41.69;98545.19;4972262;28;101672;-76
2023/05/02 10:25:03;;;;;;;;;3.00;3.00;;;;;21.22;40.20;98535.53;4966203;28;101941;-76
2023/05/02 10:27:31;;;;;;;;;4.00;4.00;;;;;21.40;40.29;98547.13;4967198;28;103676;-76
2023/05/02 10:29:59;;;;;;;;;4.33;4.00;;;;;21.35;40.88;98531.44;4968189;28;101598;-77
2023/05/02 10:32:32;;;;;;;;;5.00;5.00;;;;;20.98;42.26;98539.84;4957325;28;102180;-75
2023/05/02 10:35:04;;;;;;;;;4.00;3.00;;;;;21.03;41.12;98544.53;4970006;28;105914;-78
2023/05/02 10:37:35;;;;;;;;;5.00;5.00;;;;;21.27;41.32;98543.78;4965815;28;103574;-75
2023/05/02 10:40:04;;;;;;;;;6.67;6.67;;;;;21.50;40.72;98541.63;4963906;28;101828;-76
2023/05/02 10:42:37;;;;;;;;;11.00;9.67;;;;;21.32;41.93;98537.47;4954980;28;101592;-77
2023/05/02 10:45:09;;;;;;;;;7.67;7.00;;;;;21.34;41.18;98533.34;4964116;28;101953;-76
2023/05/02 10:47:36;;;;;;;;;8.00;8.00;;;;;21.17;42.13;98530.00;4971311;28;103342;-76
2023/05/02 10:50:04;;;;;;;;;13.00;11.67;;;;;21.43;39.99;98539.16;4967299;28;101611;-76
2023/05/02 10:52:33;;;;;;;;;19.33;18.67;;;;;21.18;41.51;98542.66;4961767;28;101599;-75
2023/05/02 10:55:15;;;;;;;;;8.67;8.00;;;;;21.17;41.27;98537.44;4964621;28;101855;-77
2023/05/02 10:57:57;;;;;;;;;4.67;4.67;;;;;21.60;40.47;98530.66;4963141;28;103483;-76
2023/05/02 11:00:31;;;;;;;;;7.00;7.00;;;;;21.84;41.71;98541.94;4961490;28;101737;-76
2023/05/02 11:02:58;;;;;;;;;9.00;8.00;;;;;21.58;41.89;98543.84;4970665;28;101586;-78
2023/05/02 11:05:27;;;;;;;;;11.00;10.00;;;;;20.67;46.91;98554.56;4961402;28;101723;-75
2023/05/02 11:08:16;;;;;;;;;10.67;9.00;;;;;20.63;46.96;98542.41;4958515;28;103348;-77
2023/05/02 11:10:47;;;;;;;;;10.33;10.00;;;;;20.13;48.50;98546.47;4957430;28;101385;-76
2023/05/02 11:13:14;;;;;;;;;14.33;13.67;;;;;19.47;50.21;98559.66;4962842;28;101486;-77
2023/05/02 11:15:41;;;;;;;;;13.00;11.00;;;;;19.40;50.63;98561.75;4968806;28;101700;-76
2023/05/02 11:18:13;;;;;;;;;11.33;11.00;;;;;19.48;50.70;98557.75;4970173;28;103580;-75
2023/05/02 11:20:44;;;;;;;;;11.67;11.00;;;;;19.49;50.91;98560.25;4963396;28;102026;-76
2023/05/02 11:23:14;;;;;;;;;9.67;9.67;;;;;19.62;50.98;98563.63;4962997;28;101524;-76
2023/05/02 11:25:44;;;;;;;;;11.00;9.33;;;;;19.52;51.78;98554.22;4966523;28;102120;-76
2023/05/02 11:28:35;;;;;;;;;15.67;13.00;;;;;19.13;50.79;98571.88;4961860;28;103519;-77
2023/05/02 11:31:07;;;;;;;;;15.00;14.00;;;;;19.07;53.15;98578.38;4966197;28;101711;-77
2023/05/02 11:33:35;;;;;;;;;14.67;14.33;;;;;19.07;53.29;98584.69;4958083;28;101668;-76
2023/05/02 11:36:02;;;;;;;;;14.00;12.00;;;;;19.24;53.65;98573.63;4968250;28;102042;-75
2023/05/02 11:38:38;;;;;;;;;15.67;13.67;;;;;18.84;52.28;98584.94;4956896;28;103309;-77
2023/05/02 11:41:05;;;;;;;;;14.67;14.67;;;;;18.78;53.37;98579.69;4981462;28;101652;-75